Terminal Aerodrome Forecast
Issued by NWS

Home | Current Version | Previous Version | Text Only | Print | Product List | Glossary On
Versions: 1 2 3 4 5 6 7 8 9 10 11 12 13 14 15 16 17 18 19 20 21 22 23
000
FTUS44 KOUN 222320
TAFPNC
TAF
KPNC 222320Z 2300/2324 16006KT P6SM BKN040 BKN100
      TEMPO 2301/2305 6SM -SHRA OVC025
     FM230500 16006KT P6SM OVC040
      TEMPO 2305/2309 5SM -DZ BR OVC020=

USA.gov is the U.S. government's official web portal to all federal, state and local government web resources and services.